sensor_id;sensor_type;location;lat;lon;timestamp;P1;durP1;ratioP1;P2;durP2;ratioP2
7545;SDS011;3814;51.454;12.616;2023-03-17T00:00:30;9.02;;;3.25;;
7545;SDS011;3814;51.454;12.616;2023-03-17T00:02:56;8.52;;;3.10;;
7545;SDS011;3814;51.454;12.616;2023-03-17T00:05:24;9.05;;;3.10;;
7545;SDS011;3814;51.454;12.616;2023-03-17T00:07:51;10.02;;;3.70;;
7545;SDS011;3814;51.454;12.616;2023-03-17T00:10:22;9.60;;;3.45;;
7545;SDS011;3814;51.454;12.616;2023-03-17T00:12:49;9.05;;;3.70;;
7545;SDS011;3814;51.454;12.616;2023-03-17T00:15:15;8.02;;;3.10;;
7545;SDS011;3814;51.454;12.616;2023-03-17T00:17:42;9.25;;;3.47;;
7545;SDS011;3814;51.454;12.616;2023-03-17T00:20:21;8.32;;;3.28;;
7545;SDS011;3814;51.454;12.616;2023-03-17T00:22:49;8.45;;;3.42;;
7545;SDS011;3814;51.454;12.616;2023-03-17T00:25:19;8.50;;;2.72;;
7545;SDS011;3814;51.454;12.616;2023-03-17T00:27:47;8.90;;;3.50;;
7545;SDS011;3814;51.454;12.616;2023-03-17T00:30:13;8.35;;;3.10;;
7545;SDS011;3814;51.454;12.616;2023-03-17T00:32:39;8.55;;;2.97;;
7545;SDS011;3814;51.454;12.616;2023-03-17T00:35:10;10.82;;;3.22;;
7545;SDS011;3814;51.454;12.616;2023-03-17T00:37:39;9.52;;;3.10;;
7545;SDS011;3814;51.454;12.616;2023-03-17T00:40:08;6.88;;;2.92;;
7545;SDS011;3814;51.454;12.616;2023-03-17T00:42:38;7.38;;;2.92;;
7545;SDS011;3814;51.454;12.616;2023-03-17T00:45:04;7.20;;;2.88;;
7545;SDS011;3814;51.454;12.616;2023-03-17T00:47:30;7.20;;;2.88;;
7545;SDS011;3814;51.454;12.616;2023-03-17T00:49:55;7.85;;;2.83;;
7545;SDS011;3814;51.454;12.616;2023-03-17T00:52:21;10.15;;;3.30;;
7545;SDS011;3814;51.454;12.616;2023-03-17T00:54:46;9.25;;;3.10;;
7545;SDS011;3814;51.454;12.616;2023-03-17T00:57:12;6.93;;;3.05;;
7545;SDS011;3814;51.454;12.616;2023-03-17T00:59:38;6.72;;;2.92;;
7545;SDS011;3814;51.454;12.616;2023-03-17T01:02:05;7.75;;;3.00;;
7545;SDS011;3814;51.454;12.616;2023-03-17T01:04:31;8.45;;;3.17;;
7545;SDS011;3814;51.454;12.616;2023-03-17T01:06:56;7.57;;;2.80;;
7545;SDS011;3814;51.454;12.616;2023-03-17T01:09:23;6.72;;;2.83;;
7545;SDS011;3814;51.454;12.616;2023-03-17T01:11:49;8.85;;;2.70;;
7545;SDS011;3814;51.454;12.616;2023-03-17T01:14:15;6.75;;;2.75;;
7545;SDS011;3814;51.454;12.616;2023-03-17T01:16:40;9.02;;;2.90;;
7545;SDS011;3814;51.454;12.616;2023-03-17T01:19:06;6.75;;;2.30;;
7545;SDS011;3814;51.454;12.616;2023-03-17T01:21:32;5.88;;;2.65;;
7545;SDS011;3814;51.454;12.616;2023-03-17T01:23:58;7.03;;;2.45;;
7545;SDS011;3814;51.454;12.616;2023-03-17T01:26:24;8.00;;;3.10;;
7545;SDS011;3814;51.454;12.616;2023-03-17T01:28:50;6.45;;;2.40;;
7545;SDS011;3814;51.454;12.616;2023-03-17T01:31:16;6.80;;;2.22;;
7545;SDS011;3814;51.454;12.616;2023-03-17T01:33:42;11.35;;;2.85;;
7545;SDS011;3814;51.454;12.616;2023-03-17T01:36:08;5.80;;;2.42;;
7545;SDS011;3814;51.454;12.616;2023-03-17T01:38:34;6.60;;;2.40;;
7545;SDS011;3814;51.454;12.616;2023-03-17T01:41:00;7.07;;;2.50;;
7545;SDS011;3814;51.454;12.616;2023-03-17T01:43:29;6.35;;;2.60;;
7545;SDS011;3814;51.454;12.616;2023-03-17T01:48:46;5.63;;;2.50;;
7545;SDS011;3814;51.454;12.616;2023-03-17T01:51:16;6.45;;;2.22;;
7545;SDS011;3814;51.454;12.616;2023-03-17T01:53:44;6.43;;;2.50;;
7545;SDS011;3814;51.454;12.616;2023-03-17T01:56:12;4.60;;;2.22;;
7545;SDS011;3814;51.454;12.616;2023-03-17T01:58:39;6.10;;;2.28;;
7545;SDS011;3814;51.454;12.616;2023-03-17T02:01:04;7.22;;;2.13;;
7545;SDS011;3814;51.454;12.616;2023-03-17T02:03:31;7.00;;;2.38;;
7545;SDS011;3814;51.454;12.616;2023-03-17T02:05:57;3.53;;;1.95;;
7545;SDS011;3814;51.454;12.616;2023-03-17T02:08:22;6.97;;;2.40;;
7545;SDS011;3814;51.454;12.616;2023-03-17T02:10:48;5.07;;;2.05;;
7545;SDS011;3814;51.454;12.616;2023-03-17T02:13:14;8.57;;;2.65;;
7545;SDS011;3814;51.454;12.616;2023-03-17T02:15:42;4.47;;;2.13;;
7545;SDS011;3814;51.454;12.616;2023-03-17T02:18:12;4.82;;;2.22;;
7545;SDS011;3814;51.454;12.616;2023-03-17T02:23:04;5.03;;;2.40;;
7545;SDS011;3814;51.454;12.616;2023-03-17T02:25:30;9.93;;;3.17;;
7545;SDS011;3814;51.454;12.616;2023-03-17T02:28:01;8.65;;;3.08;;
7545;SDS011;3814;51.454;12.616;2023-03-17T02:30:34;7.65;;;3.17;;
7545;SDS011;3814;51.454;12.616;2023-03-17T02:32:59;7.93;;;3.40;;
7545;SDS011;3814;51.454;12.616;2023-03-17T02:35:26;7.88;;;3.63;;
7545;SDS011;3814;51.454;12.616;2023-03-17T02:37:51;6.97;;;3.35;;
7545;SDS011;3814;51.454;12.616;2023-03-17T02:40:17;7.63;;;3.70;;
7545;SDS011;3814;51.454;12.616;2023-03-17T02:42:42;10.43;;;3.95;;
7545;SDS011;3814;51.454;12.616;2023-03-17T02:45:08;8.40;;;3.50;;
7545;SDS011;3814;51.454;12.616;2023-03-17T02:47:35;8.57;;;3.10;;
7545;SDS011;3814;51.454;12.616;2023-03-17T02:50:01;10.13;;;3.15;;
7545;SDS011;3814;51.454;12.616;2023-03-17T02:52:26;8.02;;;3.25;;
7545;SDS011;3814;51.454;12.616;2023-03-17T02:54:51;6.07;;;2.78;;
7545;SDS011;3814;51.454;12.616;2023-03-17T02:57:17;9.23;;;2.78;;
7545;SDS011;3814;51.454;12.616;2023-03-17T02:59:43;8.07;;;2.95;;
7545;SDS011;3814;51.454;12.616;2023-03-17T03:02:08;9.45;;;2.70;;
7545;SDS011;3814;51.454;12.616;2023-03-17T03:04:34;7.35;;;2.60;;
7545;SDS011;3814;51.454;12.616;2023-03-17T03:07:00;5.43;;;2.40;;
7545;SDS011;3814;51.454;12.616;2023-03-17T03:09:25;5.60;;;2.40;;
7545;SDS011;3814;51.454;12.616;2023-03-17T03:11:51;7.22;;;2.47;;
7545;SDS011;3814;51.454;12.616;2023-03-17T03:14:16;7.28;;;2.33;;
7545;SDS011;3814;51.454;12.616;2023-03-17T03:16:41;6.68;;;2.60;;
7545;SDS011;3814;51.454;12.616;2023-03-17T03:19:07;4.47;;;2.13;;
7545;SDS011;3814;51.454;12.616;2023-03-17T03:21:33;7.40;;;2.28;;
7545;SDS011;3814;51.454;12.616;2023-03-17T03:23:58;6.35;;;2.30;;
7545;SDS011;3814;51.454;12.616;2023-03-17T03:26:23;3.75;;;1.80;;
7545;SDS011;3814;51.454;12.616;2023-03-17T03:28:49;5.43;;;2.03;;
7545;SDS011;3814;51.454;12.616;2023-03-17T03:31:14;7.97;;;2.50;;
7545;SDS011;3814;51.454;12.616;2023-03-17T03:33:40;6.88;;;2.30;;
7545;SDS011;3814;51.454;12.616;2023-03-17T03:36:06;6.60;;;2.63;;
7545;SDS011;3814;51.454;12.616;2023-03-17T03:38:32;5.93;;;2.40;;
7545;SDS011;3814;51.454;12.616;2023-03-17T03:40:57;7.82;;;2.47;;
7545;SDS011;3814;51.454;12.616;2023-03-17T03:43:23;5.53;;;2.55;;
7545;SDS011;3814;51.454;12.616;2023-03-17T03:45:48;6.32;;;1.98;;
7545;SDS011;3814;51.454;12.616;2023-03-17T03:48:13;4.57;;;2.20;;
7545;SDS011;3814;51.454;12.616;2023-03-17T03:50:38;6.00;;;2.15;;
7545;SDS011;3814;51.454;12.616;2023-03-17T03:53:04;4.53;;;2.00;;
7545;SDS011;3814;51.454;12.616;2023-03-17T03:55:29;5.57;;;2.08;;
7545;SDS011;3814;51.454;12.616;2023-03-17T03:57:54;4.60;;;2.30;;
7545;SDS011;3814;51.454;12.616;2023-03-17T04:00:20;5.85;;;2.40;;
7545;SDS011;3814;51.454;12.616;2023-03-17T04:02:45;5.95;;;2.08;;
7545;SDS011;3814;51.454;12.616;2023-03-17T04:05:11;5.50;;;2.42;;
7545;SDS011;3814;51.454;12.616;2023-03-17T04:07:37;6.03;;;2.40;;
7545;SDS011;3814;51.454;12.616;2023-03-17T04:10:03;7.78;;;2.83;;
7545;SDS011;3814;51.454;12.616;2023-03-17T04:12:29;6.28;;;2.25;;
7545;SDS011;3814;51.454;12.616;2023-03-17T04:14:55;7.32;;;2.28;;
7545;SDS011;3814;51.454;12.616;2023-03-17T04:17:20;8.75;;;2.20;;
7545;SDS011;3814;51.454;12.616;2023-03-17T04:19:45;5.55;;;2.60;;
7545;SDS011;3814;51.454;12.616;2023-03-17T04:22:11;5.82;;;2.45;;
7545;SDS011;3814;51.454;12.616;2023-03-17T04:24:37;6.40;;;2.42;;
7545;SDS011;3814;51.454;12.616;2023-03-17T04:27:02;7.15;;;2.80;;
7545;SDS011;3814;51.454;12.616;2023-03-17T04:29:28;5.43;;;2.42;;
7545;SDS011;3814;51.454;12.616;2023-03-17T04:31:53;6.40;;;2.38;;
7545;SDS011;3814;51.454;12.616;2023-03-17T04:34:19;6.22;;;2.45;;
7545;SDS011;3814;51.454;12.616;2023-03-17T04:36:45;5.00;;;2.30;;
7545;SDS011;3814;51.454;12.616;2023-03-17T04:39:11;8.98;;;2.53;;
7545;SDS011;3814;51.454;12.616;2023-03-17T04:41:37;5.80;;;2.20;;
7545;SDS011;3814;51.454;12.616;2023-03-17T04:44:02;6.43;;;2.22;;
7545;SDS011;3814;51.454;12.616;2023-03-17T04:46:27;6.28;;;2.30;;
7545;SDS011;3814;51.454;12.616;2023-03-17T04:48:53;6.47;;;2.10;;
7545;SDS011;3814;51.454;12.616;2023-03-17T04:51:18;4.60;;;2.20;;
7545;SDS011;3814;51.454;12.616;2023-03-17T04:53:44;5.35;;;2.20;;
7545;SDS011;3814;51.454;12.616;2023-03-17T04:56:10;5.13;;;2.20;;
7545;SDS011;3814;51.454;12.616;2023-03-17T04:58:36;4.53;;;2.05;;
7545;SDS011;3814;51.454;12.616;2023-03-17T05:01:01;5.97;;;2.25;;
7545;SDS011;3814;51.454;12.616;2023-03-17T05:03:27;7.50;;;2.00;;
7545;SDS011;3814;51.454;12.616;2023-03-17T05:05:54;4.18;;;1.90;;
7545;SDS011;3814;51.454;12.616;2023-03-17T05:08:19;6.15;;;2.35;;
7545;SDS011;3814;51.454;12.616;2023-03-17T05:10:45;6.43;;;2.55;;
7545;SDS011;3814;51.454;12.616;2023-03-17T05:13:10;6.85;;;3.28;;
7545;SDS011;3814;51.454;12.616;2023-03-17T05:15:35;7.15;;;2.58;;
7545;SDS011;3814;51.454;12.616;2023-03-17T05:18:01;6.40;;;2.45;;
7545;SDS011;3814;51.454;12.616;2023-03-17T05:20:27;4.80;;;2.10;;
7545;SDS011;3814;51.454;12.616;2023-03-17T05:22:52;6.10;;;2.15;;
7545;SDS011;3814;51.454;12.616;2023-03-17T05:25:17;6.55;;;1.92;;
7545;SDS011;3814;51.454;12.616;2023-03-17T05:27:43;6.90;;;2.20;;
7545;SDS011;3814;51.454;12.616;2023-03-17T05:30:08;5.40;;;2.15;;
7545;SDS011;3814;51.454;12.616;2023-03-17T05:32:34;4.82;;;2.17;;
7545;SDS011;3814;51.454;12.616;2023-03-17T05:35:00;6.40;;;2.30;;
7545;SDS011;3814;51.454;12.616;2023-03-17T05:37:26;5.03;;;2.38;;
7545;SDS011;3814;51.454;12.616;2023-03-17T05:39:51;4.63;;;1.90;;
7545;SDS011;3814;51.454;12.616;2023-03-17T05:42:17;5.93;;;2.08;;
7545;SDS011;3814;51.454;12.616;2023-03-17T05:44:43;3.67;;;1.63;;
7545;SDS011;3814;51.454;12.616;2023-03-17T05:47:08;7.90;;;2.25;;
7545;SDS011;3814;51.454;12.616;2023-03-17T05:49:33;4.40;;;2.10;;
7545;SDS011;3814;51.454;12.616;2023-03-17T05:51:59;4.43;;;2.05;;
7545;SDS011;3814;51.454;12.616;2023-03-17T05:54:24;5.03;;;1.85;;
7545;SDS011;3814;51.454;12.616;2023-03-17T05:56:50;7.53;;;2.38;;
7545;SDS011;3814;51.454;12.616;2023-03-17T05:59:15;4.60;;;1.90;;
7545;SDS011;3814;51.454;12.616;2023-03-17T06:01:42;4.15;;;1.85;;
7545;SDS011;3814;51.454;12.616;2023-03-17T06:04:07;5.25;;;2.13;;
7545;SDS011;3814;51.454;12.616;2023-03-17T06:06:33;5.15;;;2.10;;
7545;SDS011;3814;51.454;12.616;2023-03-17T06:08:58;5.80;;;2.38;;
7545;SDS011;3814;51.454;12.616;2023-03-17T06:11:24;4.82;;;2.30;;
7545;SDS011;3814;51.454;12.616;2023-03-17T06:13:50;4.70;;;2.50;;
7545;SDS011;3814;51.454;12.616;2023-03-17T06:16:15;5.55;;;1.90;;
7545;SDS011;3814;51.454;12.616;2023-03-17T06:18:41;5.88;;;2.20;;
7545;SDS011;3814;51.454;12.616;2023-03-17T06:21:06;5.57;;;1.98;;
7545;SDS011;3814;51.454;12.616;2023-03-17T06:23:32;4.30;;;1.90;;
7545;SDS011;3814;51.454;12.616;2023-03-17T06:25:57;7.05;;;2.30;;
7545;SDS011;3814;51.454;12.616;2023-03-17T06:28:22;6.85;;;2.58;;
7545;SDS011;3814;51.454;12.616;2023-03-17T06:30:48;4.97;;;2.22;;
7545;SDS011;3814;51.454;12.616;2023-03-17T06:33:13;7.35;;;2.40;;
7545;SDS011;3814;51.454;12.616;2023-03-17T06:35:38;4.70;;;2.17;;
7545;SDS011;3814;51.454;12.616;2023-03-17T06:38:03;5.13;;;2.28;;
7545;SDS011;3814;51.454;12.616;2023-03-17T06:40:29;6.38;;;2.33;;
7545;SDS011;3814;51.454;12.616;2023-03-17T06:42:56;7.00;;;2.33;;
7545;SDS011;3814;51.454;12.616;2023-03-17T06:45:21;6.60;;;2.28;;
7545;SDS011;3814;51.454;12.616;2023-03-17T06:47:46;7.15;;;2.47;;
7545;SDS011;3814;51.454;12.616;2023-03-17T06:50:11;7.10;;;2.45;;
7545;SDS011;3814;51.454;12.616;2023-03-17T06:52:37;5.95;;;2.22;;
7545;SDS011;3814;51.454;12.616;2023-03-17T06:55:04;6.18;;;2.28;;
7545;SDS011;3814;51.454;12.616;2023-03-17T06:57:30;5.47;;;2.70;;
7545;SDS011;3814;51.454;12.616;2023-03-17T06:59:55;7.72;;;2.33;;
7545;SDS011;3814;51.454;12.616;2023-03-17T07:02:21;5.22;;;2.22;;
7545;SDS011;3814;51.454;12.616;2023-03-17T07:04:46;5.75;;;2.33;;
7545;SDS011;3814;51.454;12.616;2023-03-17T07:07:12;6.45;;;2.22;;
7545;SDS011;3814;51.454;12.616;2023-03-17T07:09:37;6.85;;;2.03;;
7545;SDS011;3814;51.454;12.616;2023-03-17T07:12:04;6.20;;;2.67;;
7545;SDS011;3814;51.454;12.616;2023-03-17T07:14:33;5.97;;;2.60;;
7545;SDS011;3814;51.454;12.616;2023-03-17T07:17:00;5.00;;;2.10;;
7545;SDS011;3814;51.454;12.616;2023-03-17T07:19:27;5.60;;;2.25;;
7545;SDS011;3814;51.454;12.616;2023-03-17T07:21:53;5.35;;;2.03;;
7545;SDS011;3814;51.454;12.616;2023-03-17T07:26:47;4.22;;;2.10;;
7545;SDS011;3814;51.454;12.616;2023-03-17T07:29:13;5.80;;;2.13;;
7545;SDS011;3814;51.454;12.616;2023-03-17T07:31:38;8.15;;;2.33;;
7545;SDS011;3814;51.454;12.616;2023-03-17T07:34:03;6.25;;;2.17;;
7545;SDS011;3814;51.454;12.616;2023-03-17T07:36:30;7.03;;;2.00;;
7545;SDS011;3814;51.454;12.616;2023-03-17T07:38:55;5.70;;;1.92;;
7545;SDS011;3814;51.454;12.616;2023-03-17T07:41:21;5.93;;;2.17;;
7545;SDS011;3814;51.454;12.616;2023-03-17T07:43:46;5.53;;;2.40;;
7545;SDS011;3814;51.454;12.616;2023-03-17T07:46:11;5.05;;;2.00;;
7545;SDS011;3814;51.454;12.616;2023-03-17T07:48:37;5.18;;;1.98;;
7545;SDS011;3814;51.454;12.616;2023-03-17T07:51:06;4.57;;;1.90;;
7545;SDS011;3814;51.454;12.616;2023-03-17T07:53:38;4.53;;;1.85;;
7545;SDS011;3814;51.454;12.616;2023-03-17T07:56:03;5.43;;;2.17;;
7545;SDS011;3814;51.454;12.616;2023-03-17T07:58:29;4.45;;;2.20;;
7545;SDS011;3814;51.454;12.616;2023-03-17T08:00:54;5.07;;;1.90;;
7545;SDS011;3814;51.454;12.616;2023-03-17T08:03:21;7.38;;;2.08;;
7545;SDS011;3814;51.454;12.616;2023-03-17T08:05:50;5.20;;;2.05;;
7545;SDS011;3814;51.454;12.616;2023-03-17T08:08:17;4.72;;;2.13;;
7545;SDS011;3814;51.454;12.616;2023-03-17T08:10:43;5.13;;;1.92;;
7545;SDS011;3814;51.454;12.616;2023-03-17T08:13:09;6.53;;;2.00;;
7545;SDS011;3814;51.454;12.616;2023-03-17T08:15:34;5.30;;;2.10;;
7545;SDS011;3814;51.454;12.616;2023-03-17T08:18:01;6.00;;;2.47;;
7545;SDS011;3814;51.454;12.616;2023-03-17T08:20:27;5.50;;;2.22;;
7545;SDS011;3814;51.454;12.616;2023-03-17T08:22:53;4.95;;;2.17;;
7545;SDS011;3814;51.454;12.616;2023-03-17T08:25:19;5.40;;;1.95;;
7545;SDS011;3814;51.454;12.616;2023-03-17T08:27:45;4.57;;;2.20;;
7545;SDS011;3814;51.454;12.616;2023-03-17T08:30:11;5.18;;;2.40;;
7545;SDS011;3814;51.454;12.616;2023-03-17T08:32:37;5.95;;;2.53;;
7545;SDS011;3814;51.454;12.616;2023-03-17T08:35:02;5.10;;;2.38;;
7545;SDS011;3814;51.454;12.616;2023-03-17T08:37:30;5.57;;;2.40;;
7545;SDS011;3814;51.454;12.616;2023-03-17T08:39:57;5.07;;;2.30;;
7545;SDS011;3814;51.454;12.616;2023-03-17T08:42:22;6.72;;;2.55;;
7545;SDS011;3814;51.454;12.616;2023-03-17T08:44:48;5.93;;;2.20;;
7545;SDS011;3814;51.454;12.616;2023-03-17T08:47:13;7.43;;;2.60;;
7545;SDS011;3814;51.454;12.616;2023-03-17T08:49:39;5.20;;;2.00;;
7545;SDS011;3814;51.454;12.616;2023-03-17T08:52:04;7.20;;;2.47;;
7545;SDS011;3814;51.454;12.616;2023-03-17T08:54:29;6.45;;;2.22;;
7545;SDS011;3814;51.454;12.616;2023-03-17T08:56:55;5.30;;;2.25;;
7545;SDS011;3814;51.454;12.616;2023-03-17T08:59:21;6.10;;;2.35;;
7545;SDS011;3814;51.454;12.616;2023-03-17T09:01:47;6.28;;;2.38;;
7545;SDS011;3814;51.454;12.616;2023-03-17T09:04:12;5.28;;;2.42;;
7545;SDS011;3814;51.454;12.616;2023-03-17T09:06:38;7.10;;;2.30;;
7545;SDS011;3814;51.454;12.616;2023-03-17T09:09:04;5.93;;;2.38;;
7545;SDS011;3814;51.454;12.616;2023-03-17T09:11:30;5.93;;;2.42;;
7545;SDS011;3814;51.454;12.616;2023-03-17T09:13:56;5.05;;;2.40;;
7545;SDS011;3814;51.454;12.616;2023-03-17T09:16:22;6.13;;;2.47;;
7545;SDS011;3814;51.454;12.616;2023-03-17T09:18:47;5.35;;;2.35;;
7545;SDS011;3814;51.454;12.616;2023-03-17T09:21:13;6.18;;;2.65;;
7545;SDS011;3814;51.454;12.616;2023-03-17T09:23:39;6.55;;;2.25;;
7545;SDS011;3814;51.454;12.616;2023-03-17T09:26:05;5.57;;;2.28;;
7545;SDS011;3814;51.454;12.616;2023-03-17T09:28:30;5.72;;;2.25;;
7545;SDS011;3814;51.454;12.616;2023-03-17T09:30:59;6.00;;;2.40;;
7545;SDS011;3814;51.454;12.616;2023-03-17T09:33:25;4.72;;;2.00;;
7545;SDS011;3814;51.454;12.616;2023-03-17T09:35:51;4.43;;;2.30;;
7545;SDS011;3814;51.454;12.616;2023-03-17T09:38:16;5.32;;;2.20;;
7545;SDS011;3814;51.454;12.616;2023-03-17T09:40:46;5.85;;;2.20;;
7545;SDS011;3814;51.454;12.616;2023-03-17T09:43:19;7.53;;;2.20;;
7545;SDS011;3814;51.454;12.616;2023-03-17T09:45:55;4.65;;;2.22;;
7545;SDS011;3814;51.454;12.616;2023-03-17T09:48:35;4.95;;;2.10;;
7545;SDS011;3814;51.454;12.616;2023-03-17T09:51:12;5.05;;;2.33;;
7545;SDS011;3814;51.454;12.616;2023-03-17T09:53:47;7.57;;;2.40;;
7545;SDS011;3814;51.454;12.616;2023-03-17T09:56:27;4.85;;;2.00;;
7545;SDS011;3814;51.454;12.616;2023-03-17T10:01:48;4.18;;;1.92;;
7545;SDS011;3814;51.454;12.616;2023-03-17T10:04:14;3.88;;;1.85;;
7545;SDS011;3814;51.454;12.616;2023-03-17T10:06:43;3.63;;;1.70;;
7545;SDS011;3814;51.454;12.616;2023-03-17T10:09:22;4.85;;;1.90;;
7545;SDS011;3814;51.454;12.616;2023-03-17T10:12:15;5.10;;;1.90;;
7545;SDS011;3814;51.454;12.616;2023-03-17T10:14:48;4.85;;;1.80;;
7545;SDS011;3814;51.454;12.616;2023-03-17T10:17:23;4.03;;;1.80;;
7545;SDS011;3814;51.454;12.616;2023-03-17T10:20:04;4.07;;;1.90;;
7545;SDS011;3814;51.454;12.616;2023-03-17T10:22:45;4.50;;;1.92;;
7545;SDS011;3814;51.454;12.616;2023-03-17T10:25:17;5.30;;;1.90;;
7545;SDS011;3814;51.454;12.616;2023-03-17T10:28:13;4.93;;;1.95;;
7545;SDS011;3814;51.454;12.616;2023-03-17T10:30:38;4.65;;;2.00;;
7545;SDS011;3814;51.454;12.616;2023-03-17T10:33:04;5.43;;;1.85;;
7545;SDS011;3814;51.454;12.616;2023-03-17T10:35:33;4.03;;;1.90;;
7545;SDS011;3814;51.454;12.616;2023-03-17T10:38:00;3.75;;;1.95;;
7545;SDS011;3814;51.454;12.616;2023-03-17T10:40:32;7.50;;;1.92;;
7545;SDS011;3814;51.454;12.616;2023-03-17T10:43:00;4.95;;;2.10;;
7545;SDS011;3814;51.454;12.616;2023-03-17T10:45:32;5.82;;;1.83;;
7545;SDS011;3814;51.454;12.616;2023-03-17T10:48:00;3.83;;;1.73;;
7545;SDS011;3814;51.454;12.616;2023-03-17T10:50:32;4.80;;;1.90;;
7545;SDS011;3814;51.454;12.616;2023-03-17T10:55:28;4.03;;;1.73;;
7545;SDS011;3814;51.454;12.616;2023-03-17T10:58:04;4.65;;;1.73;;
7545;SDS011;3814;51.454;12.616;2023-03-17T11:00:32;4.45;;;1.58;;
7545;SDS011;3814;51.454;12.616;2023-03-17T11:03:01;4.65;;;1.65;;
7545;SDS011;3814;51.454;12.616;2023-03-17T11:06:01;3.13;;;1.58;;
7545;SDS011;3814;51.454;12.616;2023-03-17T11:08:32;4.57;;;1.60;;
7545;SDS011;3814;51.454;12.616;2023-03-17T11:11:03;3.08;;;1.55;;
7545;SDS011;3814;51.454;12.616;2023-03-17T11:13:29;4.00;;;1.42;;
7545;SDS011;3814;51.454;12.616;2023-03-17T11:15:58;3.35;;;1.55;;
7545;SDS011;3814;51.454;12.616;2023-03-17T11:18:35;3.30;;;1.40;;
7545;SDS011;3814;51.454;12.616;2023-03-17T11:21:06;3.42;;;1.50;;
7545;SDS011;3814;51.454;12.616;2023-03-17T11:23:50;2.88;;;1.60;;
7545;SDS011;3814;51.454;12.616;2023-03-17T11:26:30;4.50;;;1.60;;
7545;SDS011;3814;51.454;12.616;2023-03-17T11:31:42;5.05;;;1.60;;
7545;SDS011;3814;51.454;12.616;2023-03-17T11:34:12;4.70;;;1.63;;
7545;SDS011;3814;51.454;12.616;2023-03-17T11:36:47;4.18;;;1.45;;
7545;SDS011;3814;51.454;12.616;2023-03-17T11:39:27;3.95;;;1.73;;
7545;SDS011;3814;51.454;12.616;2023-03-17T11:42:16;4.22;;;1.55;;
7545;SDS011;3814;51.454;12.616;2023-03-17T11:44:47;2.90;;;1.35;;
7545;SDS011;3814;51.454;12.616;2023-03-17T11:50:31;3.72;;;1.30;;
7545;SDS011;3814;51.454;12.616;2023-03-17T11:55:49;3.83;;;1.42;;
7545;SDS011;3814;51.454;12.616;2023-03-17T11:58:27;3.70;;;1.35;;
7545;SDS011;3814;51.454;12.616;2023-03-17T12:00:59;3.53;;;1.63;;
7545;SDS011;3814;51.454;12.616;2023-03-17T12:03:30;4.45;;;1.50;;
7545;SDS011;3814;51.454;12.616;2023-03-17T12:06:01;3.03;;;1.50;;
7545;SDS011;3814;51.454;12.616;2023-03-17T12:08:36;3.63;;;1.60;;
7545;SDS011;3814;51.454;12.616;2023-03-17T12:11:07;2.20;;;1.30;;
7545;SDS011;3814;51.454;12.616;2023-03-17T12:13:38;3.20;;;1.52;;
7545;SDS011;3814;51.454;12.616;2023-03-17T12:16:17;2.88;;;1.40;;
7545;SDS011;3814;51.454;12.616;2023-03-17T12:24:14;3.45;;;1.52;;
7545;SDS011;3814;51.454;12.616;2023-03-17T12:26:49;3.50;;;1.60;;
7545;SDS011;3814;51.454;12.616;2023-03-17T12:30:09;2.95;;;1.35;;
7545;SDS011;3814;51.454;12.616;2023-03-17T12:32:18;3.95;;;1.60;;
7545;SDS011;3814;51.454;12.616;2023-03-17T12:34:48;6.22;;;1.85;;
7545;SDS011;3814;51.454;12.616;2023-03-17T12:37:16;5.45;;;1.38;;
7545;SDS011;3814;51.454;12.616;2023-03-17T12:39:43;3.40;;;1.67;;
7545;SDS011;3814;51.454;12.616;2023-03-17T12:50:56;4.78;;;1.48;;
7545;SDS011;3814;51.454;12.616;2023-03-17T12:53:37;2.63;;;1.40;;
7545;SDS011;3814;51.454;12.616;2023-03-17T12:58:44;2.90;;;1.08;;
7545;SDS011;3814;51.454;12.616;2023-03-17T13:01:15;2.30;;;1.30;;
7545;SDS011;3814;51.454;12.616;2023-03-17T13:04:00;3.70;;;1.40;;
7545;SDS011;3814;51.454;12.616;2023-03-17T13:06:29;3.05;;;1.40;;
7545;SDS011;3814;51.454;12.616;2023-03-17T13:08:55;2.95;;;1.50;;
7545;SDS011;3814;51.454;12.616;2023-03-17T13:11:55;3.17;;;1.33;;
7545;SDS011;3814;51.454;12.616;2023-03-17T13:19:35;4.97;;;1.50;;
7545;SDS011;3814;51.454;12.616;2023-03-17T13:29:58;2.67;;;1.25;;
7545;SDS011;3814;51.454;12.616;2023-03-17T13:34:52;3.95;;;1.70;;
7545;SDS011;3814;51.454;12.616;2023-03-17T13:37:22;3.83;;;1.48;;
7545;SDS011;3814;51.454;12.616;2023-03-17T13:42:22;5.45;;;2.00;;
7545;SDS011;3814;51.454;12.616;2023-03-17T13:48:17;5.88;;;1.88;;
7545;SDS011;3814;51.454;12.616;2023-03-17T13:50:45;5.68;;;2.05;;
7545;SDS011;3814;51.454;12.616;2023-03-17T13:53:11;10.07;;;2.92;;
7545;SDS011;3814;51.454;12.616;2023-03-17T13:55:39;7.60;;;1.45;;
7545;SDS011;3814;51.454;12.616;2023-03-17T14:00:30;4.00;;;1.60;;
7545;SDS011;3814;51.454;12.616;2023-03-17T14:03:10;2.88;;;1.30;;
7545;SDS011;3814;51.454;12.616;2023-03-17T14:05:40;2.92;;;1.58;;
7545;SDS011;3814;51.454;12.616;2023-03-17T14:08:14;2.40;;;1.42;;
7545;SDS011;3814;51.454;12.616;2023-03-17T14:10:42;3.17;;;1.40;;
7545;SDS011;3814;51.454;12.616;2023-03-17T14:13:15;4.85;;;1.45;;
7545;SDS011;3814;51.454;12.616;2023-03-17T14:15:45;6.10;;;2.13;;
7545;SDS011;3814;51.454;12.616;2023-03-17T14:18:16;4.47;;;1.65;;
7545;SDS011;3814;51.454;12.616;2023-03-17T14:20:53;3.70;;;1.52;;
7545;SDS011;3814;51.454;12.616;2023-03-17T14:23:22;3.10;;;1.63;;
7545;SDS011;3814;51.454;12.616;2023-03-17T14:25:48;3.40;;;1.63;;
7545;SDS011;3814;51.454;12.616;2023-03-17T14:28:15;5.10;;;1.63;;
7545;SDS011;3814;51.454;12.616;2023-03-17T14:30:55;4.32;;;1.65;;
7545;SDS011;3814;51.454;12.616;2023-03-17T14:33:25;5.35;;;1.75;;
7545;SDS011;3814;51.454;12.616;2023-03-17T14:35:52;3.25;;;1.63;;
7545;SDS011;3814;51.454;12.616;2023-03-17T14:38:24;4.03;;;1.67;;
7545;SDS011;3814;51.454;12.616;2023-03-17T14:40:58;5.97;;;1.75;;
7545;SDS011;3814;51.454;12.616;2023-03-17T14:43:25;2.80;;;1.58;;
7545;SDS011;3814;51.454;12.616;2023-03-17T14:45:51;5.53;;;1.60;;
7545;SDS011;3814;51.454;12.616;2023-03-17T14:48:25;6.30;;;1.80;;
7545;SDS011;3814;51.454;12.616;2023-03-17T14:50:52;6.68;;;1.80;;
7545;SDS011;3814;51.454;12.616;2023-03-17T14:53:20;3.55;;;1.65;;
7545;SDS011;3814;51.454;12.616;2023-03-17T14:55:46;3.42;;;1.50;;
7545;SDS011;3814;51.454;12.616;2023-03-17T14:58:20;4.18;;;1.70;;
7545;SDS011;3814;51.454;12.616;2023-03-17T15:00:52;5.13;;;1.88;;
7545;SDS011;3814;51.454;12.616;2023-03-17T15:03:27;6.18;;;1.80;;
7545;SDS011;3814;51.454;12.616;2023-03-17T15:06:02;3.78;;;1.80;;
7545;SDS011;3814;51.454;12.616;2023-03-17T15:08:41;3.83;;;1.92;;
7545;SDS011;3814;51.454;12.616;2023-03-17T15:14:16;4.03;;;1.83;;
7545;SDS011;3814;51.454;12.616;2023-03-17T15:16:46;5.65;;;2.00;;
7545;SDS011;3814;51.454;12.616;2023-03-17T15:21:43;4.90;;;1.80;;
7545;SDS011;3814;51.454;12.616;2023-03-17T15:24:20;5.30;;;1.88;;
7545;SDS011;3814;51.454;12.616;2023-03-17T15:27:06;6.32;;;1.63;;
7545;SDS011;3814;51.454;12.616;2023-03-17T15:29:34;3.38;;;1.80;;
7545;SDS011;3814;51.454;12.616;2023-03-17T15:32:13;4.78;;;1.80;;
7545;SDS011;3814;51.454;12.616;2023-03-17T15:34:40;5.63;;;1.88;;
7545;SDS011;3814;51.454;12.616;2023-03-17T15:37:39;8.73;;;2.00;;
7545;SDS011;3814;51.454;12.616;2023-03-17T15:39:58;4.80;;;2.10;;
7545;SDS011;3814;51.454;12.616;2023-03-17T15:42:27;7.63;;;1.80;;
7545;SDS011;3814;51.454;12.616;2023-03-17T15:44:54;5.78;;;1.88;;
7545;SDS011;3814;51.454;12.616;2023-03-17T15:47:21;4.95;;;2.17;;
7545;SDS011;3814;51.454;12.616;2023-03-17T15:49:49;4.85;;;1.90;;
7545;SDS011;3814;51.454;12.616;2023-03-17T15:52:18;5.30;;;1.90;;
7545;SDS011;3814;51.454;12.616;2023-03-17T15:54:57;4.40;;;1.73;;
7545;SDS011;3814;51.454;12.616;2023-03-17T15:57:23;3.20;;;1.67;;
7545;SDS011;3814;51.454;12.616;2023-03-17T15:59:48;3.88;;;1.92;;
7545;SDS011;3814;51.454;12.616;2023-03-17T16:02:22;5.65;;;1.80;;
7545;SDS011;3814;51.454;12.616;2023-03-17T16:04:50;4.30;;;1.70;;
7545;SDS011;3814;51.454;12.616;2023-03-17T16:07:15;4.90;;;1.92;;
7545;SDS011;3814;51.454;12.616;2023-03-17T16:09:41;4.95;;;1.75;;
7545;SDS011;3814;51.454;12.616;2023-03-17T16:12:09;5.40;;;1.98;;
7545;SDS011;3814;51.454;12.616;2023-03-17T16:17:01;4.00;;;1.73;;